createdAt,value
2024-01-20T00:00:16.748Z,-1.74
2024-01-20T00:03:04.528Z,-1.72
2024-01-20T00:05:32.353Z,-1.70
2024-01-20T00:08:00.236Z,-1.68
2024-01-20T00:10:28.375Z,-1.65
2024-01-20T00:12:55.892Z,-1.62
2024-01-20T00:15:23.965Z,-1.60
2024-01-20T00:17:51.818Z,-1.60
2024-01-20T00:20:19.912Z,-1.59
2024-01-20T00:22:47.712Z,-1.58
2024-01-20T00:25:15.485Z,-1.58
2024-01-20T00:27:43.044Z,-1.57
2024-01-20T00:30:11.859Z,-1.57
2024-01-20T00:32:39.774Z,-1.56
2024-01-20T00:35:08.824Z,-1.53
2024-01-20T00:37:39.482Z,-1.52
2024-01-20T00:40:08.600Z,-1.51
2024-01-20T00:42:36.298Z,-1.49
2024-01-20T00:45:05.624Z,-1.47
2024-01-20T00:47:35.844Z,-1.44
2024-01-20T00:50:06.062Z,-1.41
2024-01-20T00:52:33.661Z,-1.38
2024-01-20T00:55:01.492Z,-1.34
2024-01-20T00:57:29.189Z,-1.30
2024-01-20T00:59:57.501Z,-1.25
2024-01-20T01:02:26.119Z,-1.21
2024-01-20T01:04:53.764Z,-1.18
2024-01-20T01:07:21.618Z,-1.16
2024-01-20T01:09:49.585Z,-1.13
2024-01-20T01:12:17.308Z,-1.10
2024-01-20T01:14:44.944Z,-1.08
2024-01-20T01:17:12.590Z,-1.06
2024-01-20T01:19:40.432Z,-1.03
2024-01-20T01:22:07.997Z,-0.99
2024-01-20T01:24:35.552Z,-0.96
2024-01-20T01:27:03.202Z,-0.93
2024-01-20T01:29:30.932Z,-0.91
2024-01-20T01:31:58.852Z,-0.91
2024-01-20T01:34:27.448Z,-0.90
2024-01-20T01:36:55.867Z,-0.91
2024-01-20T01:39:23.377Z,-0.90
2024-01-20T01:41:50.967Z,-0.88
2024-01-20T01:44:18.462Z,-0.88
2024-01-20T01:46:46.675Z,-0.86
2024-01-20T01:49:14.703Z,-0.85
2024-01-20T01:51:42.275Z,-0.84
2024-01-20T01:54:12.970Z,-0.83
2024-01-20T01:56:42.919Z,-0.82
2024-01-20T01:59:10.828Z,-0.82
2024-01-20T02:01:38.393Z,-0.81
2024-01-20T02:04:06.212Z,-0.81
2024-01-20T02:06:33.805Z,-0.80
2024-01-20T02:09:01.711Z,-0.79
2024-01-20T02:11:29.297Z,-0.79
2024-01-20T02:13:57.009Z,-0.78
2024-01-20T02:16:24.685Z,-0.78
2024-01-20T02:18:52.204Z,-0.79
2024-01-20T02:21:19.865Z,-0.81
2024-01-20T02:23:50.180Z,-0.83
2024-01-20T02:26:17.752Z,-0.84
2024-01-20T02:28:45.253Z,-0.85
2024-01-20T02:31:13.151Z,-0.86
2024-01-20T02:33:40.759Z,-0.86
2024-01-20T02:36:08.429Z,-0.87
2024-01-20T02:38:36.011Z,-0.86
2024-01-20T02:41:03.804Z,-0.85
2024-01-20T02:43:31.760Z,-0.85
2024-01-20T02:45:59.347Z,-0.85
2024-01-20T02:48:27.193Z,-0.86
2024-01-20T02:50:54.946Z,-0.86
2024-01-20T02:53:22.532Z,-0.87
2024-01-20T02:55:50.112Z,-0.90
2024-01-20T02:58:17.773Z,-0.91
2024-01-20T03:00:45.474Z,-0.94
2024-01-20T03:03:13.119Z,-0.97
2024-01-20T03:05:41.016Z,-1.00
2024-01-20T03:08:08.780Z,-1.03
2024-01-20T03:10:36.292Z,-1.08
2024-01-20T03:13:04.080Z,-1.11
2024-01-20T03:15:32.024Z,-1.13
2024-01-20T03:17:59.642Z,-1.15
2024-01-20T03:20:27.281Z,-1.17
2024-01-20T03:22:54.796Z,-1.19
2024-01-20T03:25:22.374Z,-1.19
2024-01-20T03:27:49.863Z,-1.20
2024-01-20T03:30:17.515Z,-1.20
2024-01-20T03:32:45.158Z,-1.20
2024-01-20T03:35:12.754Z,-1.21
2024-01-20T03:37:40.800Z,-1.21
2024-01-20T03:40:09.486Z,-1.21
2024-01-20T03:42:37.089Z,-1.21
2024-01-20T03:45:05.107Z,-1.20
2024-01-20T03:47:34.215Z,-1.20
2024-01-20T03:50:04.957Z,-1.19
2024-01-20T03:52:32.618Z,-1.18
2024-01-20T03:55:00.183Z,-1.17
2024-01-20T03:57:27.840Z,-1.17
2024-01-20T03:59:55.424Z,-1.19
2024-01-20T04:02:22.956Z,-1.21
2024-01-20T04:04:50.533Z,-1.24
2024-01-20T04:07:18.074Z,-1.27
2024-01-20T04:09:45.654Z,-1.31
2024-01-20T04:12:13.271Z,-1.33
2024-01-20T04:14:40.757Z,-1.34
2024-01-20T04:17:08.295Z,-1.36
2024-01-20T04:19:35.883Z,-1.36
2024-01-20T04:22:03.573Z,-1.37
2024-01-20T04:24:31.155Z,-1.38
2024-01-20T04:26:58.715Z,-1.39
2024-01-20T04:29:26.229Z,-1.38
2024-01-20T04:31:53.862Z,-1.38
2024-01-20T04:34:21.557Z,-1.36
2024-01-20T04:36:49.438Z,-1.34
2024-01-20T04:39:17.009Z,-1.31
2024-01-20T04:41:44.594Z,-1.27
2024-01-20T04:44:12.346Z,-1.24
2024-01-20T04:46:39.877Z,-1.21
2024-01-20T04:49:08.246Z,-1.18
2024-01-20T04:51:36.057Z,-1.15
2024-01-20T04:54:03.738Z,-1.13
2024-01-20T04:56:31.343Z,-1.09
2024-01-20T04:58:58.893Z,-1.06
2024-01-20T05:01:26.450Z,-1.05
2024-01-20T05:03:54.205Z,-1.03
2024-01-20T05:06:22.005Z,-1.01
2024-01-20T05:08:49.763Z,-1.00
2024-01-20T05:11:17.310Z,-0.99
2024-01-20T05:13:44.956Z,-0.98
2024-01-20T05:16:12.692Z,-0.97
2024-01-20T05:18:40.915Z,-0.95
2024-01-20T05:21:14.098Z,-0.94
2024-01-20T05:23:41.945Z,-0.92
2024-01-20T05:26:09.465Z,-0.91
2024-01-20T05:28:36.969Z,-0.90
2024-01-20T05:31:04.722Z,-0.87
2024-01-20T05:33:32.337Z,-0.87
2024-01-20T05:36:00.252Z,-0.86
2024-01-20T05:38:27.807Z,-0.84
2024-01-20T05:40:57.154Z,-0.83
2024-01-20T05:43:24.693Z,-0.82
2024-01-20T05:45:52.215Z,-0.82
2024-01-20T05:48:19.819Z,-0.81
2024-01-20T05:50:48.435Z,-0.80
2024-01-20T05:53:19.220Z,-0.79
2024-01-20T05:55:46.736Z,-0.77
2024-01-20T05:58:15.460Z,-0.77
2024-01-20T06:00:43.166Z,-0.77
2024-01-20T06:03:10.817Z,-0.76
2024-01-20T06:05:38.451Z,-0.77
2024-01-20T06:08:06.285Z,-0.76
2024-01-20T06:10:33.829Z,-0.76
2024-01-20T06:13:01.368Z,-0.77
2024-01-20T06:15:29.014Z,-0.80
2024-01-20T06:17:56.560Z,-0.81
2024-01-20T06:20:24.299Z,-0.83
2024-01-20T06:22:51.885Z,-0.84
2024-01-20T06:25:19.452Z,-0.85
2024-01-20T06:27:47.037Z,-0.85
2024-01-20T06:30:14.824Z,-0.87
2024-01-20T06:32:42.411Z,-0.88
2024-01-20T06:35:10.322Z,-0.88
2024-01-20T06:37:37.870Z,-0.89
2024-01-20T06:40:05.998Z,-0.89
2024-01-20T06:42:33.621Z,-0.90
2024-01-20T06:45:01.924Z,-0.90
2024-01-20T06:47:30.827Z,-0.88
2024-01-20T06:49:58.408Z,-0.87
2024-01-20T06:52:25.972Z,-0.86
2024-01-20T06:54:53.561Z,-0.86
2024-01-20T06:57:21.193Z,-0.85
2024-01-20T06:59:48.785Z,-0.83
2024-01-20T07:02:16.726Z,-0.81
2024-01-20T07:04:44.261Z,-0.79
2024-01-20T07:07:12.230Z,-0.77
2024-01-20T07:09:41.170Z,-0.76
2024-01-20T07:12:09.680Z,-0.76
2024-01-20T07:14:37.290Z,-0.75
2024-01-20T07:17:06.202Z,-0.73
2024-01-20T07:19:33.803Z,-0.70
2024-01-20T07:22:01.423Z,-0.68
2024-01-20T07:24:30.255Z,-0.64
2024-01-20T07:26:57.917Z,-0.61
2024-01-20T07:29:26.228Z,-0.58
2024-01-20T07:31:53.854Z,-0.53
2024-01-20T07:34:21.490Z,-0.50
2024-01-20T07:36:49.234Z,-0.45
2024-01-20T07:39:16.905Z,-0.41
2024-01-20T07:41:44.461Z,-0.39
2024-01-20T07:44:12.336Z,-0.37
2024-01-20T07:46:39.944Z,-0.36
2024-01-20T07:49:07.561Z,-0.34
2024-01-20T07:51:35.560Z,-0.33
2024-01-20T07:54:03.410Z,-0.32
2024-01-20T07:56:32.065Z,-0.30
2024-01-20T07:58:59.807Z,-0.29
2024-01-20T08:01:27.428Z,-0.28
2024-01-20T08:03:55.016Z,-0.27
2024-01-20T08:06:22.783Z,-0.25
2024-01-20T08:08:50.623Z,-0.21
2024-01-20T08:11:19.487Z,-0.18
2024-01-20T08:13:48.366Z,-0.15
2024-01-20T08:16:15.885Z,-0.12
2024-01-20T08:18:43.572Z,-0.11
2024-01-20T08:21:11.797Z,-0.10
2024-01-20T08:23:39.323Z,-0.10
2024-01-20T08:26:07.410Z,-0.08
2024-01-20T08:28:35.019Z,-0.07
2024-01-20T08:31:02.632Z,-0.05
2024-01-20T08:33:30.432Z,-0.04
2024-01-20T08:35:58.524Z,-0.03
2024-01-20T08:38:26.098Z,0.02
2024-01-20T08:40:53.639Z,0.08
2024-01-20T08:43:21.294Z,0.16
2024-01-20T08:45:48.822Z,0.23
2024-01-20T08:48:16.442Z,0.27
2024-01-20T08:50:44.068Z,0.28
2024-01-20T08:53:11.627Z,0.28
2024-01-20T08:55:39.288Z,0.28
2024-01-20T08:58:06.843Z,0.27
2024-01-20T09:00:34.368Z,0.26
2024-01-20T09:03:01.979Z,0.25
2024-01-20T09:05:37.885Z,0.24
2024-01-20T09:08:09.186Z,0.25
2024-01-20T09:10:38.175Z,0.25
2024-01-20T09:13:05.713Z,0.26
2024-01-20T09:15:33.358Z,0.28
2024-01-20T09:18:01.368Z,0.30
2024-01-20T09:20:29.269Z,0.32
2024-01-20T09:22:56.993Z,0.33
2024-01-20T09:25:24.707Z,0.35
2024-01-20T09:27:52.769Z,0.37
2024-01-20T09:30:20.387Z,0.40
2024-01-20T09:32:48.083Z,0.44
2024-01-20T09:35:15.706Z,0.51
2024-01-20T09:37:43.623Z,0.56
2024-01-20T09:40:11.987Z,0.56
2024-01-20T09:42:40.454Z,0.54
2024-01-20T09:45:09.451Z,0.47
2024-01-20T09:47:37.252Z,0.41
2024-01-20T09:50:06.453Z,0.36
2024-01-20T09:52:44.368Z,0.30
2024-01-20T09:55:22.658Z,0.24
2024-01-20T09:57:51.353Z,0.19
2024-01-20T10:00:21.093Z,0.13
2024-01-20T10:02:49.172Z,0.08
2024-01-20T10:05:17.519Z,0.07
2024-01-20T10:07:45.155Z,0.08
2024-01-20T10:10:28.850Z,0.13
2024-01-20T10:12:56.579Z,0.17
2024-01-20T10:15:32.758Z,0.18
2024-01-20T10:18:10.281Z,0.18
2024-01-20T10:20:38.361Z,0.16
2024-01-20T10:23:07.373Z,0.11
2024-01-20T10:25:35.148Z,0.09
2024-01-20T10:28:02.847Z,0.09
2024-01-20T10:30:31.313Z,0.15
2024-01-20T10:33:09.368Z,0.23
2024-01-20T10:35:39.799Z,0.31
2024-01-20T10:38:13.547Z,0.39
2024-01-20T10:40:44.302Z,0.47
2024-01-20T10:43:17.289Z,0.60
2024-01-20T10:46:21.833Z,0.68
2024-01-20T10:48:55.591Z,0.71
2024-01-20T10:51:30.381Z,0.66
2024-01-20T10:53:58.601Z,0.63
2024-01-20T10:56:28.129Z,0.59
2024-01-20T10:59:18.821Z,0.57
2024-01-20T11:01:47.075Z,0.55
2024-01-20T11:04:21.310Z,0.54
2024-01-20T11:06:49.425Z,0.53
2024-01-20T11:09:24.077Z,0.52
2024-01-20T11:12:08.581Z,0.52
2024-01-20T11:14:37.001Z,0.50
2024-01-20T11:17:14.799Z,0.48
2024-01-20T11:19:42.553Z,0.47
2024-01-20T11:22:32.285Z,0.46
2024-01-20T11:25:05.681Z,0.44
2024-01-20T11:27:48.274Z,0.43
2024-01-20T11:30:30.417Z,0.42
2024-01-20T11:32:59.745Z,0.42
2024-01-20T11:35:27.901Z,0.41
2024-01-20T11:37:56.528Z,0.40
2024-01-20T11:40:24.881Z,0.38
2024-01-20T11:42:52.441Z,0.36
2024-01-20T11:45:20.138Z,0.32
2024-01-20T11:47:47.700Z,0.28
2024-01-20T11:50:15.330Z,0.25
2024-01-20T11:52:42.879Z,0.23
2024-01-20T11:55:10.503Z,0.19
2024-01-20T11:57:38.858Z,0.15
2024-01-20T12:00:09.484Z,0.10
2024-01-20T12:02:38.115Z,0.07
2024-01-20T12:05:12.104Z,0.06
2024-01-20T12:07:43.319Z,0.08
2024-01-20T12:10:11.004Z,0.08
2024-01-20T12:12:40.037Z,0.07
2024-01-20T12:15:08.574Z,0.08
2024-01-20T12:17:36.598Z,0.11
2024-01-20T12:20:06.137Z,0.17
2024-01-20T12:22:33.687Z,0.22
2024-01-20T12:25:01.166Z,0.23
2024-01-20T12:27:28.691Z,0.23
2024-01-20T12:29:56.313Z,0.22
2024-01-20T12:32:24.638Z,0.22
2024-01-20T12:34:53.603Z,0.24
2024-01-20T12:37:21.144Z,0.26
2024-01-20T12:39:48.695Z,0.26
2024-01-20T12:42:16.415Z,0.25
2024-01-20T12:44:44.669Z,0.25
2024-01-20T12:47:12.153Z,0.25
2024-01-20T12:49:39.841Z,0.27
2024-01-20T12:52:07.594Z,0.29
2024-01-20T12:54:35.276Z,0.31
2024-01-20T12:57:04.056Z,0.34
2024-01-20T12:59:32.570Z,0.36
2024-01-20T13:02:00.941Z,0.37
2024-01-20T13:04:28.523Z,0.36
2024-01-20T13:06:56.143Z,0.35
2024-01-20T13:09:23.820Z,0.35
2024-01-20T13:11:51.550Z,0.36
2024-01-20T13:14:19.423Z,0.37
2024-01-20T13:16:46.995Z,0.35
2024-01-20T13:19:14.639Z,0.32
2024-01-20T13:21:42.380Z,0.32
2024-01-20T13:24:09.958Z,0.30
2024-01-20T13:26:37.471Z,0.29
2024-01-20T13:29:05.032Z,0.30
2024-01-20T13:31:35.626Z,0.29
2024-01-20T13:34:03.231Z,0.31
2024-01-20T13:36:31.178Z,0.32
2024-01-20T13:38:58.699Z,0.32
2024-01-20T13:41:30.351Z,0.34
2024-01-20T13:43:58.753Z,0.35
2024-01-20T13:46:26.374Z,0.37
2024-01-20T13:48:53.916Z,0.38
2024-01-20T13:51:23.341Z,0.38
2024-01-20T13:53:50.937Z,0.40
2024-01-20T13:56:19.060Z,0.39
2024-01-20T13:58:46.767Z,0.39
2024-01-20T14:01:14.271Z,0.38
2024-01-20T14:03:41.865Z,0.36
2024-01-20T14:06:09.804Z,0.36
2024-01-20T14:08:37.402Z,0.36
2024-01-20T14:11:04.989Z,0.36
2024-01-20T14:13:32.537Z,0.35
2024-01-20T14:16:02.859Z,0.37
2024-01-20T14:18:30.567Z,0.37
2024-01-20T14:20:58.374Z,0.39
2024-01-20T14:23:25.859Z,0.39
2024-01-20T14:25:54.280Z,0.39
2024-01-20T14:28:21.990Z,0.41
2024-01-20T14:30:49.735Z,0.41
2024-01-20T14:33:17.600Z,0.42
2024-01-20T14:35:45.486Z,0.42
2024-01-20T14:38:14.927Z,0.44
2024-01-20T14:40:42.634Z,0.47
2024-01-20T14:43:10.623Z,0.51
2024-01-20T14:45:38.339Z,0.54
2024-01-20T14:48:07.171Z,0.56
2024-01-20T14:50:34.933Z,0.59
2024-01-20T14:53:02.885Z,0.60
2024-01-20T14:55:31.919Z,0.62
2024-01-20T14:58:00.164Z,0.63
2024-01-20T15:00:27.770Z,0.64
2024-01-20T15:02:55.508Z,0.64
2024-01-20T15:05:23.041Z,0.65
2024-01-20T15:07:50.568Z,0.66
2024-01-20T15:10:21.633Z,0.67
2024-01-20T15:12:50.021Z,0.67
2024-01-20T15:15:17.889Z,0.67
2024-01-20T15:17:45.580Z,0.67
2024-01-20T15:20:13.162Z,0.67
2024-01-20T15:22:40.874Z,0.67
2024-01-20T15:25:09.730Z,0.67
2024-01-20T15:27:38.462Z,0.67
2024-01-20T15:30:06.907Z,0.68
2024-01-20T15:32:34.565Z,0.69
2024-01-20T15:35:02.526Z,0.71
2024-01-20T15:37:30.050Z,0.70
2024-01-20T15:39:57.652Z,0.69
2024-01-20T15:42:25.376Z,0.68
2024-01-20T15:44:53.242Z,0.66
2024-01-20T15:47:20.765Z,0.65
2024-01-20T15:49:48.748Z,0.64
2024-01-20T15:52:16.562Z,0.65
2024-01-20T15:54:46.805Z,0.66
2024-01-20T15:57:14.589Z,0.67
2024-01-20T15:59:42.107Z,0.67
2024-01-20T16:02:09.709Z,0.66
2024-01-20T16:04:37.250Z,0.65
2024-01-20T16:07:05.651Z,0.65
2024-01-20T16:09:33.300Z,0.64
2024-01-20T16:12:03.162Z,0.63
2024-01-20T16:14:33.619Z,0.63
2024-01-20T16:17:01.781Z,0.63
2024-01-20T16:19:29.404Z,0.62
2024-01-20T16:21:58.428Z,0.62
2024-01-20T16:24:26.028Z,0.62
2024-01-20T16:26:53.736Z,0.61
2024-01-20T16:29:21.316Z,0.61
2024-01-20T16:31:48.940Z,0.63
2024-01-20T16:34:16.520Z,0.64
2024-01-20T16:36:44.452Z,0.65
2024-01-20T16:39:12.186Z,0.67
2024-01-20T16:41:39.701Z,0.69
2024-01-20T16:44:08.262Z,0.71
2024-01-20T16:46:38.497Z,0.71
2024-01-20T16:49:06.247Z,0.72
2024-01-20T16:51:34.113Z,0.74
2024-01-20T16:54:01.838Z,0.74
2024-01-20T16:56:29.467Z,0.74
2024-01-20T16:58:57.724Z,0.74
2024-01-20T17:01:25.316Z,0.73
2024-01-20T17:03:53.160Z,0.73
2024-01-20T17:06:21.383Z,0.73
2024-01-20T17:08:49.123Z,0.72
2024-01-20T17:11:17.421Z,0.72
2024-01-20T17:13:46.037Z,0.71
2024-01-20T17:16:13.721Z,0.73
2024-01-20T17:18:41.414Z,0.74
2024-01-20T17:21:18.083Z,0.74
2024-01-20T17:23:46.115Z,0.75
2024-01-20T17:26:27.002Z,0.76
2024-01-20T17:28:57.565Z,0.76
2024-01-20T17:31:31.811Z,0.77
2024-01-20T17:34:05.202Z,0.76
2024-01-20T17:36:33.597Z,0.77
2024-01-20T17:39:04.801Z,0.77
2024-01-20T17:41:33.064Z,0.76
2024-01-20T17:44:00.724Z,0.76
2024-01-20T17:46:28.506Z,0.76
2024-01-20T17:48:56.218Z,0.76
2024-01-20T17:51:23.894Z,0.76
2024-01-20T17:53:51.808Z,0.75
2024-01-20T17:56:19.382Z,0.75
2024-01-20T17:58:46.861Z,0.76
2024-01-20T18:01:14.514Z,0.76
2024-01-20T18:03:42.207Z,0.76
2024-01-20T18:06:09.969Z,0.75
2024-01-20T18:08:37.775Z,0.76
2024-01-20T18:11:05.609Z,0.75
2024-01-20T18:13:33.258Z,0.74
2024-01-20T18:16:00.903Z,0.73
2024-01-20T18:18:28.731Z,0.72
2024-01-20T18:20:56.759Z,0.73
2024-01-20T18:23:24.314Z,0.73
2024-01-20T18:25:52.293Z,0.72
2024-01-20T18:28:19.812Z,0.71
2024-01-20T18:30:48.119Z,0.70
2024-01-20T18:33:15.816Z,0.70
2024-01-20T18:35:43.417Z,0.69
2024-01-20T18:38:11.442Z,0.69
2024-01-20T18:40:39.736Z,0.69
2024-01-20T18:43:07.800Z,0.69
2024-01-20T18:45:35.443Z,0.68
2024-01-20T18:48:03.449Z,0.67
2024-01-20T18:50:31.299Z,0.65
2024-01-20T18:52:58.863Z,0.63
2024-01-20T18:55:26.636Z,0.62
2024-01-20T18:57:54.169Z,0.62
2024-01-20T19:00:21.838Z,0.63
2024-01-20T19:02:49.494Z,0.65
2024-01-20T19:05:17.085Z,0.67
2024-01-20T19:07:45.511Z,0.70
2024-01-20T19:10:14.610Z,0.72
2024-01-20T19:12:43.856Z,0.73
2024-01-20T19:15:13.906Z,0.72
2024-01-20T19:17:41.536Z,0.70
2024-01-20T19:20:10.663Z,0.70
2024-01-20T19:22:38.442Z,0.69
2024-01-20T19:25:07.470Z,0.69
2024-01-20T19:27:34.990Z,0.69
2024-01-20T19:30:02.551Z,0.68
2024-01-20T19:32:30.304Z,0.66
2024-01-20T19:34:58.065Z,0.64
2024-01-20T19:37:25.917Z,0.63
2024-01-20T19:39:54.106Z,0.62
2024-01-20T19:42:21.812Z,0.59
2024-01-20T19:44:49.284Z,0.58
2024-01-20T19:47:16.784Z,0.57
2024-01-20T19:49:44.486Z,0.58
2024-01-20T19:52:13.313Z,0.56
2024-01-20T19:54:41.559Z,0.55
2024-01-20T19:57:09.320Z,0.52
2024-01-20T19:59:37.651Z,0.47
2024-01-20T20:02:05.572Z,0.45
2024-01-20T20:04:33.268Z,0.44
2024-01-20T20:07:05.372Z,0.43
2024-01-20T20:09:32.922Z,0.42
2024-01-20T20:12:00.553Z,0.42
2024-01-20T20:14:28.147Z,0.43
2024-01-20T20:16:55.694Z,0.44
2024-01-20T20:19:23.295Z,0.45
2024-01-20T20:21:50.904Z,0.46
2024-01-20T20:24:18.997Z,0.47
2024-01-20T20:26:46.520Z,0.46
2024-01-20T20:29:14.601Z,0.46
2024-01-20T20:31:42.568Z,0.47
2024-01-20T20:34:10.290Z,0.47
2024-01-20T20:36:40.656Z,0.49
2024-01-20T20:39:08.786Z,0.49
2024-01-20T20:41:36.429Z,0.48
2024-01-20T20:44:04.900Z,0.47
2024-01-20T20:46:34.847Z,0.47
2024-01-20T20:49:04.450Z,0.47
2024-01-20T20:51:32.285Z,0.48
2024-01-20T20:53:59.833Z,0.47
2024-01-20T20:56:27.464Z,0.49
2024-01-20T20:58:54.987Z,0.49
2024-01-20T21:01:22.587Z,0.50
2024-01-20T21:03:50.349Z,0.51
2024-01-20T21:06:18.015Z,0.52
2024-01-20T21:08:45.579Z,0.52
2024-01-20T21:11:13.172Z,0.52
2024-01-20T21:13:41.301Z,0.51
2024-01-20T21:16:08.860Z,0.49
2024-01-20T21:18:36.605Z,0.47
2024-01-20T21:21:05.427Z,0.48
2024-01-20T21:23:33.664Z,0.48
2024-01-20T21:26:01.270Z,0.48
2024-01-20T21:28:28.799Z,0.50
2024-01-20T21:30:56.322Z,0.50
2024-01-20T21:33:24.087Z,0.51
2024-01-20T21:35:51.678Z,0.49
2024-01-20T21:38:19.643Z,0.46
2024-01-20T21:40:47.907Z,0.44
2024-01-20T21:43:15.633Z,0.43
2024-01-20T21:45:45.204Z,0.43
2024-01-20T21:48:13.599Z,0.44
2024-01-20T21:50:42.053Z,0.46
2024-01-20T21:53:09.608Z,0.47
2024-01-20T21:55:37.210Z,0.49
2024-01-20T21:58:04.926Z,0.48
2024-01-20T22:00:32.474Z,0.45
2024-01-20T22:03:00.207Z,0.42
2024-01-20T22:05:28.222Z,0.36
2024-01-20T22:07:59.867Z,0.31
2024-01-20T22:10:31.210Z,0.26
2024-01-20T22:12:59.138Z,0.21
2024-01-20T22:15:27.286Z,0.14
2024-01-20T22:17:54.848Z,0.05
2024-01-20T22:20:22.434Z,-0.04
2024-01-20T22:22:49.874Z,-0.13
2024-01-20T22:25:17.432Z,-0.20
2024-01-20T22:27:45.451Z,-0.29
2024-01-20T22:30:13.589Z,-0.37
2024-01-20T22:32:41.226Z,-0.45
2024-01-20T22:35:08.945Z,-0.52
2024-01-20T22:37:36.706Z,-0.59
2024-01-20T22:40:05.090Z,-0.66
2024-01-20T22:42:32.714Z,-0.72
2024-01-20T22:45:00.395Z,-0.79
2024-01-20T22:47:27.981Z,-0.84
2024-01-20T22:49:55.588Z,-0.90
2024-01-20T22:52:23.041Z,-0.97
2024-01-20T22:54:52.192Z,-1.00
2024-01-20T22:57:20.260Z,-1.04
2024-01-20T22:59:48.026Z,-1.07
2024-01-20T23:02:16.065Z,-1.11
2024-01-20T23:04:43.812Z,-1.14
2024-01-20T23:07:11.431Z,-1.18
2024-01-20T23:09:39.104Z,-1.22
2024-01-20T23:12:07.040Z,-1.28
2024-01-20T23:14:36.617Z,-1.35
2024-01-20T23:17:04.723Z,-1.41
2024-01-20T23:19:32.284Z,-1.49
2024-01-20T23:21:59.835Z,-1.58
2024-01-20T23:24:27.342Z,-1.64
2024-01-20T23:26:54.816Z,-1.70
2024-01-20T23:29:22.242Z,-1.75
2024-01-20T23:31:49.854Z,-1.82
2024-01-20T23:34:17.573Z,-1.87
2024-01-20T23:36:45.249Z,-1.89
2024-01-20T23:39:14.646Z,-1.86
2024-01-20T23:41:42.200Z,-1.77
2024-01-20T23:44:11.166Z,-1.73
2024-01-20T23:46:38.693Z,-1.74
2024-01-20T23:49:06.334Z,-1.74
2024-01-20T23:51:34.442Z,-1.74
2024-01-20T23:54:01.972Z,-1.73
2024-01-20T23:56:29.456Z,-1.72
2024-01-20T23:58:58.448Z,-1.71
